CheckWX is a tool to help pilots better visualize weather data.  It is not intended as a substitute for an official pre-flight weather briefing.

12:26:47 UTC

FYWE TAF
Eros Airport
Windhoek, Namibia
TAF FYWE 261100Z 2612/2621 33006KT 9999 FEW045 BECMG 2612/2614 9999 SCT045TCU PROB30 TEMPO 2615/2618 -TSRA FEW040CB

Mar-26@
12:00 UTC

Mar-26 @ 12:00 UTC

Mar-26@
21:00 UTC

Mar-26 @ 21:00 UTC

TAF FYWE 261100Z 2612/2621 33006KT 9999 FEW045
Wind
  • 330° at 6 KTS
Cloud Levels
  • Few at 4,500' AGL

Mar-26@
12:00 UTC

Mar-26 @ 12:00 UTC

Mar-26@
21:00 UTC

Mar-26 @ 21:00 UTC

BECMG 2612/2614 9999 SCT045TCU

Becoming

Becoming Conditions expected by Tue, Mar 26, 2019 @ 14:00 UTC

Wind
  • 330° at 6 KTS
Cloud Levels
  • Scattered at 4,500' AGL

Mar-26@
15:00 UTC

Mar-26 @ 15:00 UTC

Mar-26@
18:00 UTC

Mar-26 @ 18:00 UTC

PROB30 TEMPO 2615/2618 -TSRA FEW040CB

Temporary - 30% Likelihood

Temporary - 30% Likelihood during this time.

Conditions
Light Thunderstorm, Light Rain
Cloud Levels
  • Few at 4,000' AGL